createdAt,value
2023-04-20T00:00:34.919Z,53.4927
2023-04-20T00:01:36.338Z,53.4453
2023-04-20T00:02:37.847Z,53.4076
2023-04-20T00:03:39.325Z,53.5551
2023-04-20T00:04:40.679Z,53.7497
2023-04-20T00:05:42.018Z,53.7127
2023-04-20T00:06:43.465Z,53.8678
2023-04-20T00:07:44.875Z,53.8319
2023-04-20T00:08:46.234Z,53.7256
2023-04-20T00:09:47.693Z,53.7082
2023-04-20T00:10:49.143Z,53.6219
2023-04-20T00:11:50.581Z,53.5896
2023-04-20T00:12:52.002Z,53.5721
2023-04-20T00:13:53.460Z,53.7023
2023-04-20T00:14:54.807Z,53.8388
2023-04-20T00:15:56.255Z,53.7179
2023-04-20T00:16:57.787Z,53.6738
2023-04-20T00:17:59.213Z,53.7617
2023-04-20T00:19:00.566Z,53.6819
2023-04-20T00:20:02.008Z,53.7039
2023-04-20T00:21:03.406Z,53.5771
2023-04-20T00:22:04.839Z,53.5830
2023-04-20T00:23:06.265Z,53.4837
2023-04-20T00:24:07.741Z,53.5108
2023-04-20T00:25:09.163Z,53.2864
2023-04-20T00:26:10.538Z,53.1718
2023-04-20T00:27:12.043Z,53.0919
2023-04-20T00:28:13.451Z,52.9711
2023-04-20T00:29:15.023Z,52.9337
2023-04-20T00:30:16.403Z,52.9052
2023-04-20T00:31:17.794Z,52.8751
2023-04-20T00:32:19.157Z,52.9111
2023-04-20T00:33:20.599Z,52.9263
2023-04-20T00:34:22.082Z,52.9527
2023-04-20T00:35:23.478Z,53.1364
2023-04-20T00:36:24.921Z,53.0939
2023-04-20T00:37:26.347Z,53.0459
2023-04-20T00:38:27.803Z,53.1309
2023-04-20T00:39:29.296Z,53.1777
2023-04-20T00:40:30.666Z,53.1794
2023-04-20T00:41:31.980Z,53.2357
2023-04-20T00:42:33.484Z,53.2468
2023-04-20T00:43:34.874Z,53.3257
2023-04-20T00:44:36.386Z,53.2381
2023-04-20T00:45:37.799Z,53.3894
2023-04-20T00:46:39.248Z,53.3121
2023-04-20T00:47:40.691Z,53.3741
2023-04-20T00:48:42.033Z,53.2531
2023-04-20T00:49:43.523Z,53.2602
2023-04-20T00:50:44.950Z,53.1017
2023-04-20T00:51:46.353Z,53.0936
2023-04-20T00:52:47.831Z,53.0357
2023-04-20T00:53:49.227Z,53.1067
2023-04-20T00:54:50.691Z,53.1946
2023-04-20T00:55:52.150Z,53.1128
2023-04-20T00:56:53.606Z,53.0842
2023-04-20T00:57:54.962Z,53.0666
2023-04-20T00:58:56.383Z,52.9466
2023-04-20T00:59:57.909Z,52.8584
2023-04-20T01:00:59.212Z,52.7763
2023-04-20T01:02:00.748Z,52.8480
2023-04-20T01:03:02.117Z,52.9583
2023-04-20T01:04:03.589Z,53.0561
2023-04-20T01:05:04.955Z,53.0186
2023-04-20T01:06:06.394Z,53.0048
2023-04-20T01:07:07.859Z,53.0890
2023-04-20T01:08:09.275Z,53.1681
2023-04-20T01:09:10.659Z,53.2215
2023-04-20T01:10:12.164Z,53.1102
2023-04-20T01:11:13.588Z,53.0111
2023-04-20T01:12:14.962Z,53.0131
2023-04-20T01:13:16.377Z,52.8466
2023-04-20T01:14:17.793Z,52.7187
2023-04-20T01:15:19.318Z,52.8574
2023-04-20T01:16:20.724Z,52.8991
2023-04-20T01:17:22.131Z,52.9314
2023-04-20T01:18:23.586Z,52.9484
2023-04-20T01:19:24.919Z,52.9916
2023-04-20T01:20:26.392Z,53.0395
2023-04-20T01:21:27.864Z,53.0203
2023-04-20T01:22:29.212Z,53.0367
2023-04-20T01:23:30.687Z,53.1089
2023-04-20T01:24:32.161Z,53.1198
2023-04-20T01:25:33.572Z,53.1300
2023-04-20T01:26:35.042Z,53.0813
2023-04-20T01:27:36.392Z,53.1010
2023-04-20T01:28:37.854Z,53.1067
2023-04-20T01:29:39.318Z,53.2499
2023-04-20T01:30:40.735Z,53.2391
2023-04-20T01:31:42.186Z,53.1140
2023-04-20T01:32:43.610Z,52.9441
2023-04-20T01:33:44.997Z,52.7646
2023-04-20T01:34:46.435Z,52.7445
2023-04-20T01:35:47.893Z,52.6608
2023-04-20T01:36:49.240Z,52.7423
2023-04-20T01:37:50.711Z,52.7753
2023-04-20T01:38:52.214Z,52.7396
2023-04-20T01:39:53.708Z,52.8702
2023-04-20T01:40:55.055Z,52.9222
2023-04-20T01:41:56.559Z,53.0315
2023-04-20T01:42:58.005Z,53.0732
2023-04-20T01:43:59.375Z,53.1498
2023-04-20T01:45:00.829Z,53.1895
2023-04-20T01:46:02.220Z,53.1098
2023-04-20T01:47:03.717Z,53.0862
2023-04-20T01:48:05.082Z,53.1414
2023-04-20T01:49:06.542Z,53.1326
2023-04-20T01:50:07.931Z,53.1256
2023-04-20T01:51:09.401Z,52.9627
2023-04-20T01:52:10.838Z,52.9162
2023-04-20T01:53:12.273Z,52.9324
2023-04-20T01:54:13.700Z,52.9211
2023-04-20T01:55:15.220Z,52.9166
2023-04-20T01:56:16.686Z,52.9499
2023-04-20T01:57:18.161Z,52.9474
2023-04-20T01:58:19.515Z,53.0485
2023-04-20T01:59:21.008Z,53.0329
2023-04-20T02:00:22.387Z,53.0938
2023-04-20T02:01:23.820Z,53.1877
2023-04-20T02:02:25.461Z,53.1367
2023-04-20T02:03:26.716Z,53.0622
2023-04-20T02:04:28.135Z,52.9799
2023-04-20T02:05:29.579Z,52.9455
2023-04-20T02:06:30.987Z,52.8749
2023-04-20T02:07:32.515Z,52.8713
2023-04-20T02:08:33.741Z,52.9640
2023-04-20T02:09:35.260Z,52.9459
2023-04-20T02:10:36.711Z,52.9741
2023-04-20T02:11:38.125Z,53.0232
2023-04-20T02:12:39.629Z,53.0649
2023-04-20T02:13:41.049Z,53.0057
2023-04-20T02:14:42.473Z,53.1323
2023-04-20T02:15:43.932Z,53.1296
2023-04-20T02:16:45.327Z,53.0967
2023-04-20T02:17:46.783Z,52.9278
2023-04-20T02:18:48.064Z,52.8458
2023-04-20T02:19:49.555Z,52.8278
2023-04-20T02:20:50.900Z,52.7453
2023-04-20T02:21:52.415Z,52.7803
2023-04-20T02:22:53.951Z,52.9017
2023-04-20T02:23:55.456Z,52.9122
2023-04-20T02:24:56.750Z,52.9993
2023-04-20T02:25:58.173Z,52.9605
2023-04-20T02:26:59.593Z,52.8602
2023-04-20T02:28:01.092Z,52.8687
2023-04-20T02:29:02.475Z,52.9356
2023-04-20T02:30:03.923Z,53.0913
2023-04-20T02:31:05.338Z,53.0331
2023-04-20T02:32:06.656Z,53.0854
2023-04-20T02:33:08.254Z,53.2287
2023-04-20T02:34:09.735Z,53.1820
2023-04-20T02:35:11.020Z,53.1472
2023-04-20T02:36:12.598Z,53.0764
2023-04-20T02:37:13.908Z,53.1721
2023-04-20T02:38:15.391Z,53.1457
2023-04-20T02:39:17.031Z,53.0064
2023-04-20T02:40:18.232Z,53.0050
2023-04-20T02:41:19.647Z,52.9359
2023-04-20T02:42:21.004Z,52.9592
2023-04-20T02:43:22.435Z,52.9665
2023-04-20T02:44:23.938Z,52.9713
2023-04-20T02:45:25.349Z,52.9707
2023-04-20T02:46:26.787Z,52.8954
2023-04-20T02:47:28.234Z,52.7927
2023-04-20T02:48:29.724Z,52.6919
2023-04-20T02:49:31.054Z,52.7003
2023-04-20T02:50:32.482Z,52.6865
2023-04-20T02:51:33.921Z,52.6172
2023-04-20T02:52:35.253Z,52.7739
2023-04-20T02:53:36.799Z,52.8047
2023-04-20T02:54:38.200Z,52.5819
2023-04-20T02:55:39.677Z,52.0549
2023-04-20T02:56:41.061Z,50.8718
2023-04-20T02:57:42.506Z,48.7233
2023-04-20T02:58:43.968Z,46.9857
2023-04-20T02:59:45.342Z,46.9825
2023-04-20T03:00:46.796Z,47.4537
2023-04-20T03:01:48.203Z,48.1267
2023-04-20T03:02:49.830Z,48.4714
2023-04-20T03:03:51.331Z,47.8293
2023-04-20T03:04:52.728Z,47.3525
2023-04-20T03:05:55.181Z,47.5402
2023-04-20T03:06:55.365Z,47.9639
2023-04-20T03:07:56.904Z,48.5517
2023-04-20T03:08:58.248Z,48.6362
2023-04-20T03:09:59.661Z,48.1958
2023-04-20T03:11:01.124Z,47.7301
2023-04-20T03:12:02.541Z,47.7186
2023-04-20T03:13:03.941Z,47.8340
2023-04-20T03:14:05.429Z,47.7874
2023-04-20T03:15:06.802Z,47.9539
2023-04-20T03:16:08.365Z,48.3753
2023-04-20T03:17:09.683Z,48.7728
2023-04-20T03:18:11.010Z,48.4199
2023-04-20T03:19:12.570Z,48.0551
2023-04-20T03:20:13.878Z,47.7401
2023-04-20T03:21:15.459Z,47.7533
2023-04-20T03:22:16.798Z,47.9880
2023-04-20T03:23:18.186Z,48.2159
2023-04-20T03:24:19.672Z,48.5761
2023-04-20T03:25:20.990Z,48.2114
2023-04-20T03:26:22.531Z,47.9211
2023-04-20T03:27:23.985Z,47.8389
2023-04-20T03:28:25.326Z,47.8164
2023-04-20T03:29:26.896Z,47.9856
2023-04-20T03:30:28.249Z,48.0861
2023-04-20T03:31:29.753Z,48.0429
2023-04-20T03:32:32.722Z,48.0864
2023-04-20T03:33:32.564Z,48.0698
2023-04-20T03:34:34.053Z,47.8001
2023-04-20T03:35:35.411Z,47.5581
2023-04-20T03:36:36.817Z,47.4248
2023-04-20T03:37:38.292Z,47.6119
2023-04-20T03:38:39.654Z,47.7904
2023-04-20T03:39:41.157Z,48.0419
2023-04-20T03:40:42.569Z,48.5394
2023-04-20T03:41:44.022Z,48.9393
2023-04-20T03:42:45.359Z,48.5252
2023-04-20T03:43:46.761Z,47.9825
2023-04-20T03:44:48.320Z,47.8725
2023-04-20T03:45:49.739Z,47.8942
2023-04-20T03:46:51.149Z,48.0024
2023-04-20T03:47:52.612Z,48.1942
2023-04-20T03:48:54.034Z,48.7222
2023-04-20T03:49:55.488Z,48.5673
2023-04-20T03:50:56.824Z,48.1810
2023-04-20T03:51:58.326Z,48.1289
2023-04-20T03:52:59.681Z,48.1570
2023-04-20T03:54:01.192Z,48.3244
2023-04-20T03:55:02.603Z,48.2748
2023-04-20T03:56:03.962Z,47.8882
2023-04-20T03:57:05.364Z,47.7391
2023-04-20T03:58:06.897Z,47.7408
2023-04-20T03:59:08.213Z,47.8781
2023-04-20T04:00:09.698Z,48.2220
2023-04-20T04:01:11.118Z,48.4081
2023-04-20T04:02:12.525Z,48.1252
2023-04-20T04:03:14.153Z,47.9131
2023-04-20T04:04:15.541Z,47.8146
2023-04-20T04:05:16.915Z,48.1290
2023-04-20T04:06:18.240Z,48.1833
2023-04-20T04:07:19.632Z,47.9570
2023-04-20T04:08:21.002Z,47.8082
2023-04-20T04:09:22.629Z,47.7453
2023-04-20T04:10:24.013Z,47.9478
2023-04-20T04:11:25.446Z,48.2763
2023-04-20T04:12:26.892Z,48.2499
2023-04-20T04:13:28.203Z,48.2205
2023-04-20T04:14:29.544Z,48.1066
2023-04-20T04:15:31.050Z,47.9784
2023-04-20T04:16:32.620Z,47.9421
2023-04-20T04:17:33.896Z,47.9175
2023-04-20T04:18:35.393Z,48.0471
2023-04-20T04:19:36.821Z,47.9879
2023-04-20T04:20:38.298Z,47.8786
2023-04-20T04:21:39.720Z,47.9684
2023-04-20T04:22:41.013Z,48.1864
2023-04-20T04:23:42.491Z,48.5429
2023-04-20T04:24:43.962Z,48.6817
2023-04-20T04:25:45.459Z,48.8947
2023-04-20T04:26:46.866Z,48.8848
2023-04-20T04:27:48.330Z,48.6870
2023-04-20T04:28:49.563Z,48.4973
2023-04-20T04:29:51.178Z,48.5975
2023-04-20T04:30:52.645Z,48.7470
2023-04-20T04:31:54.198Z,48.9354
2023-04-20T04:32:55.532Z,48.9584
2023-04-20T04:33:56.781Z,48.7931
2023-04-20T04:34:58.152Z,48.8142
2023-04-20T04:35:59.715Z,49.1737
2023-04-20T04:37:01.136Z,49.0600
2023-04-20T04:38:02.541Z,49.0230
2023-04-20T04:39:03.938Z,48.9872
2023-04-20T04:40:05.432Z,48.9973
2023-04-20T04:41:06.875Z,49.0632
2023-04-20T04:42:08.145Z,49.0570
2023-04-20T04:43:09.631Z,49.0546
2023-04-20T04:44:11.156Z,49.0056
2023-04-20T04:45:12.513Z,49.0773
2023-04-20T04:46:14.044Z,49.1653
2023-04-20T04:47:15.380Z,49.2069
2023-04-20T04:48:16.771Z,49.1556
2023-04-20T04:49:18.366Z,49.1353
2023-04-20T04:50:19.606Z,49.0774
2023-04-20T04:51:21.150Z,49.0251
2023-04-20T04:52:22.421Z,49.0088
2023-04-20T04:53:23.957Z,49.0897
2023-04-20T04:54:25.340Z,48.8307
2023-04-20T04:55:26.825Z,48.1849
2023-04-20T04:56:28.243Z,47.5146
2023-04-20T04:57:29.643Z,46.9769
2023-04-20T04:58:31.035Z,46.5572
2023-04-20T04:59:32.486Z,46.2550
2023-04-20T05:00:33.877Z,46.0490
2023-04-20T05:01:35.414Z,45.8504
2023-04-20T05:02:37.245Z,45.5301
2023-04-20T05:03:38.341Z,45.2539
2023-04-20T05:04:39.667Z,44.7632
2023-04-20T05:05:41.056Z,44.7234
2023-04-20T05:06:42.554Z,44.6670
2023-04-20T05:07:43.957Z,44.3603
2023-04-20T05:08:45.347Z,44.1137
2023-04-20T05:09:46.748Z,43.9556
2023-04-20T05:10:48.134Z,43.7803
2023-04-20T05:11:49.605Z,43.6565
2023-04-20T05:12:51.089Z,43.4572
2023-04-20T05:13:52.507Z,43.5138
2023-04-20T05:14:53.889Z,43.4511
2023-04-20T05:15:55.395Z,43.2602
2023-04-20T05:16:56.738Z,43.4923
2023-04-20T05:17:58.186Z,43.6554
2023-04-20T05:18:59.564Z,43.3264
2023-04-20T05:20:01.030Z,43.2501
2023-04-20T05:21:02.470Z,43.3480
2023-04-20T05:22:04.013Z,43.3904
2023-04-20T05:23:05.487Z,43.1918
2023-04-20T05:24:06.754Z,42.9490
2023-04-20T05:25:08.196Z,42.8820
2023-04-20T05:26:09.638Z,42.6913
2023-04-20T05:27:11.026Z,42.6940
2023-04-20T05:28:12.488Z,42.7402
2023-04-20T05:29:13.805Z,42.7747
2023-04-20T05:30:20.315Z,43.1679
2023-04-20T05:31:16.719Z,42.9762
2023-04-20T05:32:18.272Z,42.9777
2023-04-20T05:33:19.611Z,43.2210
2023-04-20T05:34:20.976Z,43.2552
2023-04-20T05:35:22.433Z,42.8608
2023-04-20T05:36:23.873Z,42.8008
2023-04-20T05:37:25.166Z,43.0738
2023-04-20T05:38:26.590Z,43.0199
2023-04-20T05:39:28.141Z,43.1540
2023-04-20T05:40:29.571Z,43.2194
2023-04-20T05:41:30.998Z,43.1462
2023-04-20T05:42:32.451Z,43.0442
2023-04-20T05:43:33.809Z,42.7993
2023-04-20T05:44:35.251Z,42.9255
2023-04-20T05:45:36.736Z,43.0461
2023-04-20T05:46:38.113Z,42.6285
2023-04-20T05:47:39.669Z,42.8260
2023-04-20T05:48:40.933Z,43.1828
2023-04-20T05:49:42.444Z,43.8021
2023-04-20T05:50:43.893Z,43.7836
2023-04-20T05:51:45.318Z,43.2015
2023-04-20T05:52:46.808Z,42.6714
2023-04-20T05:53:48.207Z,42.8758
2023-04-20T05:54:49.541Z,42.5667
2023-04-20T05:55:50.979Z,42.1382
2023-04-20T05:56:52.506Z,42.3750
2023-04-20T05:57:53.911Z,42.7647
2023-04-20T05:58:55.399Z,42.8305
2023-04-20T05:59:56.815Z,43.4082
2023-04-20T06:00:58.198Z,43.4067
2023-04-20T06:01:59.728Z,42.9187
2023-04-20T06:03:01.309Z,42.5903
2023-04-20T06:04:02.879Z,42.8424
2023-04-20T06:05:03.928Z,42.9632
2023-04-20T06:06:05.415Z,43.5682
2023-04-20T06:07:06.805Z,42.7710
2023-04-20T06:08:08.259Z,42.5347
2023-04-20T06:09:09.696Z,42.2296
2023-04-20T06:10:11.113Z,42.8523
2023-04-20T06:11:12.469Z,43.2029
2023-04-20T06:12:13.945Z,43.6021
2023-04-20T06:13:15.412Z,42.7816
2023-04-20T06:14:17.273Z,42.1923
2023-04-20T06:15:18.218Z,42.1602
2023-04-20T06:16:19.688Z,42.4214
2023-04-20T06:17:21.091Z,42.8613
2023-04-20T06:18:22.594Z,43.2654
2023-04-20T06:19:23.994Z,42.9097
2023-04-20T06:20:25.409Z,42.1809
2023-04-20T06:21:26.837Z,41.8934
2023-04-20T06:22:28.288Z,42.5118
2023-04-20T06:23:29.630Z,42.7834
2023-04-20T06:24:31.039Z,43.3879
2023-04-20T06:25:32.492Z,43.0313
2023-04-20T06:26:33.850Z,42.1847
2023-04-20T06:27:35.376Z,42.1163
2023-04-20T06:28:36.844Z,42.4290
2023-04-20T06:29:38.319Z,42.8066
2023-04-20T06:30:39.568Z,43.4493
2023-04-20T06:31:41.137Z,42.5805
2023-04-20T06:32:42.552Z,42.5786
2023-04-20T06:33:43.925Z,41.9871
2023-04-20T06:34:45.413Z,42.3014
2023-04-20T06:35:46.777Z,42.6786
2023-04-20T06:36:48.198Z,43.5187
2023-04-20T06:37:49.665Z,42.4645
2023-04-20T06:38:51.038Z,42.4965
2023-04-20T06:39:52.559Z,41.7166
2023-04-20T06:40:53.956Z,42.1311
2023-04-20T06:41:55.345Z,42.5932
2023-04-20T06:42:56.702Z,43.2636
2023-04-20T06:43:58.241Z,42.3993
2023-04-20T06:44:59.636Z,41.8081
2023-04-20T06:46:01.085Z,41.5608
2023-04-20T06:47:02.635Z,41.8415
2023-04-20T06:48:03.954Z,42.6330
2023-04-20T06:49:05.356Z,43.2737
2023-04-20T06:50:06.854Z,41.9954
2023-04-20T06:51:08.247Z,41.6357
2023-04-20T06:52:09.618Z,41.4748
2023-04-20T06:53:11.073Z,42.0325
2023-04-20T06:54:12.524Z,42.5817
2023-04-20T06:55:13.891Z,42.7082
2023-04-20T06:56:15.263Z,41.8448
2023-04-20T06:57:16.768Z,41.4095
2023-04-20T06:58:18.168Z,41.3086
2023-04-20T06:59:19.894Z,41.8851
2023-04-20T07:00:21.094Z,43.0173
2023-04-20T07:01:22.635Z,42.8710
2023-04-20T07:02:24.031Z,42.0124
2023-04-20T07:03:25.578Z,41.6319
2023-04-20T07:04:26.817Z,41.3434
2023-04-20T07:05:28.231Z,42.1154
2023-04-20T07:06:29.570Z,43.0920
2023-04-20T07:07:31.057Z,42.2620
2023-04-20T07:08:32.449Z,41.6951
2023-04-20T07:09:33.987Z,41.2962
2023-04-20T07:10:35.362Z,41.2051
2023-04-20T07:11:36.759Z,41.8295
2023-04-20T07:12:38.540Z,42.2330
2023-04-20T07:13:39.672Z,41.4459
2023-04-20T07:14:41.111Z,41.0130
2023-04-20T07:15:42.526Z,40.8103
2023-04-20T07:16:43.899Z,41.2945
2023-04-20T07:17:45.438Z,42.0181
2023-04-20T07:18:46.850Z,42.5008
2023-04-20T07:19:48.234Z,41.8492
2023-04-20T07:20:49.658Z,41.9436
2023-04-20T07:21:51.061Z,40.7892
2023-04-20T07:22:52.497Z,40.8790
2023-04-20T07:23:53.903Z,41.9342
2023-04-20T07:24:55.404Z,41.8100
2023-04-20T07:25:56.845Z,41.2144
2023-04-20T07:26:58.171Z,41.3195
2023-04-20T07:27:59.709Z,40.8892
2023-04-20T07:29:01.081Z,41.5177
2023-04-20T07:30:02.528Z,42.0543
2023-04-20T07:31:03.887Z,41.6549
2023-04-20T07:32:05.385Z,41.0170
2023-04-20T07:33:06.805Z,41.3187
2023-04-20T07:34:08.246Z,40.9187
2023-04-20T07:35:09.703Z,41.5732
2023-04-20T07:36:11.040Z,42.6966
2023-04-20T07:37:12.524Z,41.7198
2023-04-20T07:38:13.982Z,41.2266
2023-04-20T07:39:15.697Z,41.2828
2023-04-20T07:40:16.848Z,40.7788
2023-04-20T07:41:18.323Z,41.7035
2023-04-20T07:42:19.644Z,42.2520
2023-04-20T07:43:21.125Z,41.1109
2023-04-20T07:44:22.503Z,41.5005
2023-04-20T07:45:24.014Z,40.7788
2023-04-20T07:46:25.425Z,41.1739
2023-04-20T07:47:26.855Z,42.1899
2023-04-20T07:48:28.267Z,41.8911
2023-04-20T07:49:29.720Z,41.4777
2023-04-20T07:50:31.219Z,41.5819
2023-04-20T07:51:32.656Z,41.2711
2023-04-20T07:52:33.896Z,41.7177
2023-04-20T07:53:35.455Z,42.2928
2023-04-20T07:54:36.855Z,41.5742
2023-04-20T07:55:38.278Z,41.1645
2023-04-20T07:56:39.749Z,41.2468
2023-04-20T07:57:41.086Z,41.3106
2023-04-20T07:58:42.510Z,41.6476
2023-04-20T07:59:43.995Z,42.3905
2023-04-20T08:00:45.398Z,41.5379
2023-04-20T08:01:46.840Z,41.2786
2023-04-20T08:02:48.307Z,41.3866
2023-04-20T08:03:49.850Z,41.1315
2023-04-20T08:04:51.396Z,41.9428
2023-04-20T08:05:52.563Z,42.2092
2023-04-20T08:06:53.944Z,41.3666
2023-04-20T08:07:55.315Z,41.0826
2023-04-20T08:08:56.794Z,40.7181
2023-04-20T08:09:58.197Z,40.7512
2023-04-20T08:10:59.685Z,41.6007
2023-04-20T08:12:01.135Z,41.6264
2023-04-20T08:13:02.545Z,41.1406
2023-04-20T08:14:04.037Z,41.0889
2023-04-20T08:15:05.360Z,41.0423
2023-04-20T08:16:07.562Z,41.3934
2023-04-20T08:17:08.192Z,42.4536
2023-04-20T08:18:09.624Z,41.4559
2023-04-20T08:19:11.020Z,41.5190
2023-04-20T08:20:12.476Z,41.5195
2023-04-20T08:21:14.014Z,41.5715
2023-04-20T08:22:15.406Z,42.0520
2023-04-20T08:23:16.730Z,42.1568
2023-04-20T08:24:18.480Z,41.3563
2023-04-20T08:25:19.546Z,40.9251
2023-04-20T08:26:21.157Z,40.8171
2023-04-20T08:27:22.484Z,41.0574
2023-04-20T08:28:33.426Z,41.7875
2023-04-20T08:29:25.289Z,41.6002
2023-04-20T08:30:26.740Z,41.2747
2023-04-20T08:31:28.292Z,40.9367
2023-04-20T08:32:29.686Z,41.6839
2023-04-20T08:33:31.019Z,41.8614
2023-04-20T08:34:32.450Z,42.3572
2023-04-20T08:35:33.866Z,41.7066
2023-04-20T08:36:35.267Z,41.5053
2023-04-20T08:37:36.768Z,41.0519
2023-04-20T08:38:38.124Z,41.1909
2023-04-20T08:39:39.636Z,41.9712
2023-04-20T08:40:40.936Z,41.4598
2023-04-20T08:41:42.457Z,41.0055
2023-04-20T08:42:43.856Z,41.0734
2023-04-20T08:43:45.298Z,40.7097
2023-04-20T08:44:46.753Z,41.0900
2023-04-20T08:45:48.122Z,41.8471
2023-04-20T08:46:49.603Z,41.4195
2023-04-20T08:47:51.050Z,41.2784
2023-04-20T08:48:52.248Z,40.9262
2023-04-20T08:49:53.786Z,40.9556
2023-04-20T08:50:55.269Z,41.6602
2023-04-20T08:51:56.685Z,41.5982
2023-04-20T08:52:58.089Z,41.9552
2023-04-20T08:53:59.537Z,42.3287
2023-04-20T08:55:00.848Z,42.6934
2023-04-20T08:56:02.399Z,43.4638
2023-04-20T08:57:03.868Z,44.6554
2023-04-20T08:58:05.279Z,44.4291
2023-04-20T08:59:06.602Z,44.5165
2023-04-20T09:00:08.070Z,44.8628
2023-04-20T09:01:09.617Z,46.1735
2023-04-20T09:02:11.136Z,45.8176
2023-04-20T09:03:12.569Z,46.0506
2023-04-20T09:04:14.069Z,45.2000
2023-04-20T09:05:15.215Z,45.2813
2023-04-20T09:06:16.621Z,45.5661
2023-04-20T09:07:18.041Z,46.3675
2023-04-20T09:08:19.524Z,46.5964
2023-04-20T09:09:20.900Z,46.0453
2023-04-20T09:10:22.397Z,45.6544
2023-04-20T09:11:23.731Z,45.9365
2023-04-20T09:12:25.313Z,47.4092
2023-04-20T09:13:26.696Z,47.1523
2023-04-20T09:14:28.052Z,47.8052
2023-04-20T09:15:29.888Z,46.5524
2023-04-20T09:16:30.934Z,46.0385
2023-04-20T09:17:32.411Z,47.6195
2023-04-20T09:18:33.811Z,47.4138
2023-04-20T09:19:35.182Z,47.7627
2023-04-20T09:20:36.610Z,48.1405
2023-04-20T09:21:38.015Z,46.4667
2023-04-20T09:22:39.516Z,47.0803
2023-04-20T09:23:40.896Z,48.6210
2023-04-20T09:24:42.237Z,47.7597
2023-04-20T09:25:43.756Z,49.7252
2023-04-20T09:26:45.257Z,48.1888
2023-04-20T09:27:46.599Z,47.3016
